Time;durP1;ratioP1;P1;durP2;ratioP2;P2;SDS_P1;SDS_P2;PMS_P1;PMS_P2;Temp;Humidity;BMP_temperature;BMP_pressure;BME280_temperature;BME280_humidity;BME280_pressure;Samples;Min_cycle;Max_cycle;Signal;HPM_P1;HPM_P2
2024/01/11 00:00:03;;;;;;;1999.90;999.90;;;-5.00;97.70;;;;;;5060322;28;20025;-73
2024/01/11 00:02:29;;;;;;;1999.90;999.90;;;-4.90;97.60;;;;;;5048331;28;20037;-72
2024/01/11 00:04:54;;;;;;;1999.90;999.90;;;-4.90;97.70;;;;;;5018934;28;20032;-73
2024/01/11 00:07:20;;;;;;;1999.90;999.90;;;-4.90;97.60;;;;;;5028974;28;20044;-73
2024/01/11 00:09:46;;;;;;;1999.90;999.90;;;-5.00;97.30;;;;;;5040724;28;20753;-72
2024/01/11 00:12:11;;;;;;;1999.90;999.90;;;-5.10;97.40;;;;;;5047139;28;20032;-72
2024/01/11 00:14:37;;;;;;;1999.90;999.90;;;-5.00;97.40;;;;;;5029917;28;20112;-73
2024/01/11 00:17:03;;;;;;;1999.90;999.90;;;-4.90;97.20;;;;;;5050647;28;20039;-73
2024/01/11 00:19:29;;;;;;;1999.90;999.90;;;-4.90;97.20;;;;;;5032568;28;20533;-73
2024/01/11 00:21:54;;;;;;;1999.90;999.90;;;-5.00;97.30;;;;;;5032715;28;20608;-72
2024/01/11 00:24:20;;;;;;;1999.90;999.90;;;-5.10;97.30;;;;;;5033555;28;20037;-72
2024/01/11 00:26:46;;;;;;;1999.90;999.90;;;-5.10;97.30;;;;;;5017179;28;20060;-72
2024/01/11 00:29:11;;;;;;;1999.90;999.90;;;-5.00;97.50;;;;;;5032877;28;20029;-72
2024/01/11 00:31:38;;;;;;;1999.90;999.90;;;-5.20;97.40;;;;;;5030646;28;20074;-72
2024/01/11 00:34:04;;;;;;;1999.90;999.90;;;-5.10;97.30;;;;;;5047674;28;20044;-73
2024/01/11 00:36:30;;;;;;;1999.90;999.90;;;-5.10;97.40;;;;;;5042891;28;20038;-73
2024/01/11 00:38:56;;;;;;;1999.90;999.90;;;-5.00;97.10;;;;;;5049571;28;20060;-73
2024/01/11 00:41:21;;;;;;;1999.90;999.90;;;-5.00;97.30;;;;;;5030628;28;20068;-73
2024/01/11 00:43:47;;;;;;;1999.90;999.90;;;-5.10;97.20;;;;;;5047735;28;20059;-72
2024/01/11 00:46:13;;;;;;;1999.90;999.90;;;-5.10;97.40;;;;;;5047944;28;20630;-72
2024/01/11 00:48:38;;;;;;;1999.90;999.90;;;-4.90;97.20;;;;;;5031553;28;20040;-72
2024/01/11 00:51:05;;;;;;;1999.90;999.90;;;-5.00;97.20;;;;;;5047897;28;20040;-72
2024/01/11 00:53:31;;;;;;;1999.90;999.90;;;-5.20;97.20;;;;;;5048940;28;20541;-73
2024/01/11 00:56:00;;;;;;;1999.90;999.90;;;-5.20;97.20;;;;;;5041800;28;20040;-72
2024/01/11 00:58:26;;;;;;;1999.90;999.90;;;-5.30;97.10;;;;;;5058130;28;20029;-72
2024/01/11 01:00:53;;;;;;;1999.90;999.90;;;-5.20;97.10;;;;;;5043428;28;20036;-72
2024/01/11 01:03:36;;;;;;;1999.90;999.90;;;-5.20;97.10;;;;;;5044219;28;20030;-72
2024/01/11 01:06:02;;;;;;;1999.90;999.90;;;-5.20;97.10;;;;;;5045998;28;20028;-72
2024/01/11 01:08:28;;;;;;;1999.90;999.90;;;-5.30;97.20;;;;;;5042952;28;20021;-72
2024/01/11 01:10:54;;;;;;;1999.90;999.90;;;-5.10;97.30;;;;;;5029566;28;20457;-72
2024/01/11 01:13:20;;;;;;;1999.90;999.90;;;-5.20;96.90;;;;;;5049224;28;20044;-72
2024/01/11 01:15:45;;;;;;;1999.90;999.90;;;-5.10;97.10;;;;;;5048172;28;20396;-72
2024/01/11 01:18:11;;;;;;;1999.90;999.90;;;-5.20;97.20;;;;;;5046371;28;20117;-72
2024/01/11 01:20:37;;;;;;;1999.90;999.90;;;-4.90;97.10;;;;;;5047068;28;20057;-72
2024/01/11 01:23:03;;;;;;;1999.90;999.90;;;-5.10;97.10;;;;;;5045545;28;20025;-72
2024/01/11 01:25:28;;;;;;;1999.90;999.90;;;-5.10;97.00;;;;;;5030043;28;20059;-72
2024/01/11 01:27:55;;;;;;;1999.90;999.90;;;-5.10;97.00;;;;;;5044924;28;20036;-72
2024/01/11 01:30:21;;;;;;;1999.90;999.90;;;-5.10;97.00;;;;;;5028884;28;20051;-72
2024/01/11 01:32:47;;;;;;;1999.90;999.90;;;-5.20;97.00;;;;;;5046277;28;20025;-71
2024/01/11 01:35:13;;;;;;;1999.90;999.90;;;-5.20;96.80;;;;;;5040622;28;20040;-72
2024/01/11 01:37:38;;;;;;;1999.90;999.90;;;-5.10;97.10;;;;;;5045919;28;20016;-72
2024/01/11 01:40:05;;;;;;;1999.90;999.90;;;-5.10;97.10;;;;;;5044562;28;20053;-72
2024/01/11 01:42:31;;;;;;;1999.90;999.90;;;-5.10;97.30;;;;;;5042479;28;20108;-71
2024/01/11 01:44:56;;;;;;;1999.90;999.90;;;-5.10;97.20;;;;;;5044657;28;20108;-71
2024/01/11 01:47:22;;;;;;;1999.90;999.90;;;-5.10;97.30;;;;;;5038253;28;20044;-72
2024/01/11 01:49:49;;;;;;;1999.90;999.90;;;-5.00;97.10;;;;;;5026136;28;20032;-72
2024/01/11 01:52:16;;;;;;;1999.90;999.90;;;-5.00;97.50;;;;;;5047446;28;20079;-72
2024/01/11 01:54:42;;;;;;;1999.90;999.90;;;-5.10;97.00;;;;;;5046716;28;20033;-72
2024/01/11 01:57:10;;;;;;;1999.90;999.90;;;-5.20;96.80;;;;;;5042318;28;20021;-73
2024/01/11 01:59:37;;;;;;;1999.90;999.90;;;-5.20;97.00;;;;;;5051771;28;20064;-73
2024/01/11 02:02:04;;;;;;;1999.90;999.90;;;-5.20;96.90;;;;;;5051025;28;20112;-73
2024/01/11 02:04:30;;;;;;;1999.90;999.90;;;-5.20;97.00;;;;;;5051165;28;20058;-73
2024/01/11 02:06:57;;;;;;;1999.90;999.90;;;-5.10;97.10;;;;;;5051586;28;20045;-72
2024/01/11 02:09:24;;;;;;;1999.90;999.90;;;-5.20;97.00;;;;;;5036707;28;20031;-71
2024/01/11 02:11:52;;;;;;;1999.90;999.90;;;-5.20;97.00;;;;;;5054732;28;20107;-71
2024/01/11 02:14:19;;;;;;;1999.90;999.90;;;-5.20;97.00;;;;;;5052502;28;20025;-71
2024/01/11 02:16:45;;;;;;;1999.90;999.90;;;-5.30;97.00;;;;;;5057160;28;20083;-72
2024/01/11 02:19:13;;;;;;;1999.90;999.90;;;-5.30;97.10;;;;;;5000232;28;20029;-72
2024/01/11 02:21:42;;;;;;;1999.90;999.90;;;-5.20;96.90;;;;;;5050665;28;20041;-72
2024/01/11 02:24:08;;;;;;;1999.90;999.90;;;-5.30;96.80;;;;;;5036867;28;20037;-72
2024/01/11 02:26:34;;;;;;;1999.90;999.90;;;-5.40;96.90;;;;;;5059033;28;20040;-72
2024/01/11 02:29:02;;;;;;;1999.90;999.90;;;-5.40;97.00;;;;;;5056415;28;20051;-72
2024/01/11 02:31:28;;;;;;;1999.90;999.90;;;-5.40;96.80;;;;;;5060517;28;20060;-72
2024/01/11 02:33:55;;;;;;;1999.90;999.90;;;-5.30;96.80;;;;;;5057634;28;20060;-72
2024/01/11 02:36:22;;;;;;;1999.90;999.90;;;-5.20;96.90;;;;;;5055609;28;20043;-72
2024/01/11 02:38:48;;;;;;;1999.90;999.90;;;-5.20;97.00;;;;;;5056096;28;20025;-72
2024/01/11 02:41:18;;;;;;;1999.90;999.90;;;-5.20;96.70;;;;;;5052285;28;20017;-73
2024/01/11 02:43:48;;;;;;;1999.90;999.90;;;-5.20;96.70;;;;;;5051883;28;20021;-72
2024/01/11 02:46:17;;;;;;;1999.90;999.90;;;-5.20;96.90;;;;;;5056735;28;20067;-72
2024/01/11 02:48:43;;;;;;;1999.90;999.90;;;-5.20;96.90;;;;;;5053428;28;20338;-71
2024/01/11 02:51:09;;;;;;;1999.90;999.90;;;-5.30;96.90;;;;;;5055158;28;20044;-72
2024/01/11 02:53:34;;;;;;;1999.90;999.90;;;-5.30;96.90;;;;;;5022122;28;20116;-73
2024/01/11 02:56:01;;;;;;;1999.90;999.90;;;-5.30;96.60;;;;;;5042058;28;20029;-73
2024/01/11 02:58:27;;;;;;;1999.90;999.90;;;-5.40;96.70;;;;;;5054730;28;20032;-73
2024/01/11 03:00:52;;;;;;;1999.90;999.90;;;-5.50;96.80;;;;;;5054807;28;20431;-73
2024/01/11 03:03:18;;;;;;;1999.90;999.90;;;-5.40;97.00;;;;;;5048328;28;20481;-71
2024/01/11 03:05:43;;;;;;;1999.90;999.90;;;-5.50;96.70;;;;;;5052189;28;20029;-72
2024/01/11 03:08:09;;;;;;;1999.90;999.90;;;-5.40;97.00;;;;;;5049907;28;20083;-73
2024/01/11 03:10:38;;;;;;;1999.90;999.90;;;-5.50;97.00;;;;;;5050850;28;20033;-72
2024/01/11 03:13:05;;;;;;;1999.90;999.90;;;-5.40;97.10;;;;;;5028757;28;20021;-73
2024/01/11 03:15:31;;;;;;;1999.90;999.90;;;-5.40;96.70;;;;;;5052190;28;20064;-73
2024/01/11 03:17:57;;;;;;;1999.90;999.90;;;-5.50;96.70;;;;;;5050824;28;20041;-73
2024/01/11 03:20:24;;;;;;;1999.90;999.90;;;-5.50;96.50;;;;;;5048442;28;20033;-72
2024/01/11 03:22:51;;;;;;;1999.90;999.90;;;-5.60;96.80;;;;;;5052410;28;20041;-73
2024/01/11 03:25:17;;;;;;;1999.90;999.90;;;-5.50;96.90;;;;;;5046265;28;20033;-72
2024/01/11 03:27:43;;;;;;;1999.90;999.90;;;-5.40;96.90;;;;;;5047309;28;20572;-73
2024/01/11 03:30:09;;;;;;;1999.90;999.90;;;-5.40;97.00;;;;;;5051277;28;20048;-73
2024/01/11 03:32:34;;;;;;;1999.90;999.90;;;-5.30;96.90;;;;;;5063062;28;20446;-72
2024/01/11 03:35:00;;;;;;;1999.90;999.90;;;-5.40;97.00;;;;;;5047232;28;20151;-73
2024/01/11 03:37:25;;;;;;;1999.90;999.90;;;-5.50;96.80;;;;;;5030996;28;20029;-72
2024/01/11 03:39:51;;;;;;;1999.90;999.90;;;-5.40;96.50;;;;;;5012545;28;20082;-73
2024/01/11 03:42:17;;;;;;;1999.90;999.90;;;-5.50;96.60;;;;;;5049797;28;20033;-73
2024/01/11 03:44:43;;;;;;;1999.90;999.90;;;-5.40;96.80;;;;;;5047333;28;20036;-72
2024/01/11 03:47:08;;;;;;;1999.90;999.90;;;-5.40;96.90;;;;;;5045283;28;20472;-72
2024/01/11 03:49:34;;;;;;;1999.90;999.90;;;-5.40;96.40;;;;;;5040822;28;20124;-72
2024/01/11 03:52:00;;;;;;;1999.90;999.90;;;-5.40;96.60;;;;;;5048603;28;20025;-73
2024/01/11 03:54:25;;;;;;;1999.90;999.90;;;-5.40;96.50;;;;;;5050232;28;20045;-72
2024/01/11 03:56:51;;;;;;;1999.90;999.90;;;-5.30;96.20;;;;;;5031343;28;20033;-73
2024/01/11 03:59:16;;;;;;;1999.90;999.90;;;-5.40;96.50;;;;;;5032497;28;20033;-73
2024/01/11 04:01:42;;;;;;;1999.90;999.90;;;-5.50;96.50;;;;;;5048136;28;20095;-72
2024/01/11 04:04:08;;;;;;;1999.90;999.90;;;-5.30;96.70;;;;;;5053052;28;20025;-72
2024/01/11 04:06:34;;;;;;;1999.90;999.90;;;-5.40;96.50;;;;;;5037900;28;20048;-72
2024/01/11 04:09:00;;;;;;;1999.90;999.90;;;-5.40;96.70;;;;;;5033901;28;20483;-72
2024/01/11 04:11:29;;;;;;;1999.90;999.90;;;-5.50;96.70;;;;;;5048632;28;20082;-72
2024/01/11 04:13:55;;;;;;;1999.90;999.90;;;-5.50;96.40;;;;;;5048890;28;20028;-72
2024/01/11 04:16:21;;;;;;;1999.90;999.90;;;-5.50;96.60;;;;;;5051840;28;20025;-72
2024/01/11 04:18:47;;;;;;;1999.90;999.90;;;-5.60;96.30;;;;;;5054261;28;20035;-73
2024/01/11 04:21:22;;;;;;;1999.90;999.90;;;-5.60;96.40;;;;;;5046056;28;20601;-72
2024/01/11 04:23:48;;;;;;;1999.90;999.90;;;-5.50;96.40;;;;;;5035576;28;20044;-72
2024/01/11 04:26:14;;;;;;;1999.90;999.90;;;-5.60;96.20;;;;;;5050373;28;20041;-72
2024/01/11 04:28:39;;;;;;;1999.90;999.90;;;-5.60;96.50;;;;;;5049662;28;20600;-73
2024/01/11 04:31:05;;;;;;;1999.90;999.90;;;-5.50;96.50;;;;;;5066308;28;20048;-72
2024/01/11 04:33:31;;;;;;;1999.90;999.90;;;-5.50;96.40;;;;;;5049060;28;20094;-72
2024/01/11 04:35:59;;;;;;;1999.90;999.90;;;-5.70;96.30;;;;;;5050862;28;20040;-72
2024/01/11 04:38:24;;;;;;;1999.90;999.90;;;-5.80;96.40;;;;;;5050708;28;20506;-72
2024/01/11 04:40:50;;;;;;;1999.90;999.90;;;-5.70;96.50;;;;;;5030480;28;20087;-72
2024/01/11 04:43:16;;;;;;;1999.90;999.90;;;-5.90;96.20;;;;;;5030263;28;20033;-72
2024/01/11 04:45:41;;;;;;;1999.90;999.90;;;-5.80;96.30;;;;;;5015739;28;20033;-72
2024/01/11 04:48:07;;;;;;;1999.90;999.90;;;-5.90;96.20;;;;;;5031085;28;20032;-72
2024/01/11 04:50:33;;;;;;;1999.90;999.90;;;-6.00;96.10;;;;;;5060582;28;20047;-72
2024/01/11 04:52:58;;;;;;;1999.90;999.90;;;-5.90;96.00;;;;;;5049167;28;20557;-72
2024/01/11 04:55:24;;;;;;;1999.90;999.90;;;-6.00;96.40;;;;;;5047074;28;20029;-73
2024/01/11 04:57:50;;;;;;;1999.90;999.90;;;-6.10;96.30;;;;;;5028660;28;20025;-72
2024/01/11 05:00:16;;;;;;;1999.90;999.90;;;-5.90;96.40;;;;;;5032463;28;20514;-72
2024/01/11 05:02:41;;;;;;;1999.90;999.90;;;-6.00;96.40;;;;;;5032727;28;20025;-72
2024/01/11 05:05:07;;;;;;;1999.90;999.90;;;-5.90;96.70;;;;;;5049971;28;20051;-72
2024/01/11 05:07:34;;;;;;;1999.90;999.90;;;-5.90;96.60;;;;;;5048709;28;20041;-72
2024/01/11 05:10:00;;;;;;;1999.90;999.90;;;-5.80;96.60;;;;;;5028199;28;20068;-72
2024/01/11 05:12:25;;;;;;;1999.90;999.90;;;-5.80;96.50;;;;;;5048349;28;20087;-71
2024/01/11 05:14:53;;;;;;;1999.90;999.90;;;-6.00;96.30;;;;;;5047792;28;20118;-72
2024/01/11 05:17:22;;;;;;;1999.90;999.90;;;-5.90;96.50;;;;;;5028329;28;20029;-72
2024/01/11 05:19:48;;;;;;;1999.90;999.90;;;-5.90;96.30;;;;;;5066333;28;20017;-72
2024/01/11 05:22:14;;;;;;;1999.90;999.90;;;-5.90;96.20;;;;;;5045661;28;20068;-72
2024/01/11 05:24:39;;;;;;;1999.90;999.90;;;-5.90;96.30;;;;;;5032075;28;20045;-72
2024/01/11 05:27:05;;;;;;;1999.90;999.90;;;-5.80;96.30;;;;;;5047617;28;20056;-72
2024/01/11 05:29:31;;;;;;;1999.90;999.90;;;-5.80;96.20;;;;;;5045524;28;20039;-72
2024/01/11 05:31:57;;;;;;;1999.90;999.90;;;-5.70;96.10;;;;;;5047657;28;20021;-73
2024/01/11 05:34:25;;;;;;;1999.90;999.90;;;-5.70;96.50;;;;;;5038977;28;20040;-73
2024/01/11 05:36:51;;;;;;;1999.90;999.90;;;-5.70;96.60;;;;;;5037955;28;20793;-73
2024/01/11 05:39:16;;;;;;;1999.90;999.90;;;-5.60;96.70;;;;;;5051875;28;20120;-72
2024/01/11 05:41:45;;;;;;;1999.90;999.90;;;-5.70;96.40;;;;;;5041945;28;20063;-72
2024/01/11 05:44:11;;;;;;;1999.90;999.90;;;-5.80;96.40;;;;;;5043462;28;20041;-72
2024/01/11 05:46:37;;;;;;;1999.90;999.90;;;-5.90;96.40;;;;;;5045996;28;20048;-73
2024/01/11 05:49:03;;;;;;;1999.90;999.90;;;-5.90;96.50;;;;;;5048264;28;20029;-73
2024/01/11 05:51:29;;;;;;;1999.90;999.90;;;-5.90;96.40;;;;;;5029732;28;20045;-73
2024/01/11 05:53:55;;;;;;;1999.90;999.90;;;-6.00;96.50;;;;;;5049674;28;20028;-73
2024/01/11 05:56:21;;;;;;;1999.90;999.90;;;-5.80;96.80;;;;;;5031323;28;20030;-72
2024/01/11 05:58:46;;;;;;;1999.90;999.90;;;-5.70;96.80;;;;;;5030596;28;20056;-73
2024/01/11 06:01:12;;;;;;;1999.90;999.90;;;-5.70;96.80;;;;;;5046154;28;20545;-73
2024/01/11 06:03:39;;;;;;;1999.90;999.90;;;-5.60;96.90;;;;;;5048956;28;20056;-73
2024/01/11 06:06:05;;;;;;;1999.90;999.90;;;-5.60;96.70;;;;;;5032666;28;20075;-73
2024/01/11 06:08:31;;;;;;;1999.90;999.90;;;-5.50;96.90;;;;;;5045667;28;20064;-74
2024/01/11 06:10:57;;;;;;;1999.90;999.90;;;-5.50;96.80;;;;;;5027448;28;20399;-74
2024/01/11 06:13:23;;;;;;;1999.90;999.90;;;-5.60;96.60;;;;;;5013072;28;20040;-74
2024/01/11 06:15:50;;;;;;;1999.90;999.90;;;-5.60;96.40;;;;;;5041131;28;20038;-76
2024/01/11 06:18:16;;;;;;;1999.90;999.90;;;-5.70;96.40;;;;;;5047530;28;20372;-76
2024/01/11 06:20:41;;;;;;;1999.90;999.90;;;-5.60;96.40;;;;;;5031960;28;20027;-77
2024/01/11 06:23:07;;;;;;;1999.90;999.90;;;-5.70;96.50;;;;;;5048997;28;20033;-77
2024/01/11 06:25:33;;;;;;;1999.90;999.90;;;-5.70;96.70;;;;;;5046245;28;20398;-77
2024/01/11 06:27:59;;;;;;;1999.90;999.90;;;-5.50;96.90;;;;;;5045717;28;20029;-76
2024/01/11 06:30:25;;;;;;;1999.90;999.90;;;-5.60;96.80;;;;;;5034807;28;20104;-78
2024/01/11 06:32:51;;;;;;;1999.90;999.90;;;-5.40;97.00;;;;;;5048196;28;20028;-78
2024/01/11 06:35:16;;;;;;;1999.90;999.90;;;-5.30;96.90;;;;;;5047484;28;20033;-78
2024/01/11 06:37:43;;;;;;;1999.90;999.90;;;-5.40;96.80;;;;;;5047128;28;20021;-78
2024/01/11 06:40:09;;;;;;;1999.90;999.90;;;-5.40;96.60;;;;;;5052450;28;20021;-79
2024/01/11 06:42:35;;;;;;;1999.90;999.90;;;-5.50;96.80;;;;;;5031075;28;20053;-78
2024/01/11 06:45:03;;;;;;;1999.90;999.90;;;-5.40;97.00;;;;;;5049065;28;20044;-77
2024/01/11 06:47:32;;;;;;;1999.90;999.90;;;-5.50;97.00;;;;;;5056217;28;20212;-77
2024/01/11 06:49:59;;;;;;;1999.90;999.90;;;-5.50;97.10;;;;;;5040808;28;20045;-78
2024/01/11 06:52:25;;;;;;;1999.90;999.90;;;-5.40;97.20;;;;;;5044342;28;20015;-81
2024/01/11 06:54:50;;;;;;;1999.90;999.90;;;-5.40;97.20;;;;;;5056293;28;20478;-78
2024/01/11 06:57:16;;;;;;;1999.90;999.90;;;-5.30;97.10;;;;;;5035445;28;20029;-78
2024/01/11 06:59:46;;;;;;;1999.90;999.90;;;-5.10;97.30;;;;;;5053246;28;20032;-78
2024/01/11 07:02:12;;;;;;;1999.90;999.90;;;-5.20;97.10;;;;;;5035656;28;20116;-78
2024/01/11 07:04:38;;;;;;;1999.90;999.90;;;-5.20;97.00;;;;;;5054540;28;20037;-79
2024/01/11 07:07:04;;;;;;;1999.90;999.90;;;-5.20;97.20;;;;;;5029455;28;20507;-77
2024/01/11 07:09:30;;;;;;;1999.90;999.90;;;-5.10;97.00;;;;;;5035473;28;20095;-78
2024/01/11 07:11:55;;;;;;;1999.90;999.90;;;-5.10;97.20;;;;;;5040707;28;20041;-78
2024/01/11 07:14:23;;;;;;;1999.90;999.90;;;-5.10;97.10;;;;;;5053454;28;20041;-78
2024/01/11 07:16:51;;;;;;;1999.90;999.90;;;-5.20;97.20;;;;;;5053385;28;20025;-78
2024/01/11 07:19:17;;;;;;;1999.90;999.90;;;-5.10;97.10;;;;;;5051097;28;20051;-78
2024/01/11 07:21:43;;;;;;;1999.90;999.90;;;-5.10;97.10;;;;;;5021195;28;20045;-78
2024/01/11 07:24:09;;;;;;;1999.90;999.90;;;-5.10;97.20;;;;;;5054168;28;20037;-78
2024/01/11 07:26:34;;;;;;;1999.90;999.90;;;-4.90;97.10;;;;;;5054004;28;20074;-78
2024/01/11 07:29:00;;;;;;;1999.90;999.90;;;-5.10;97.00;;;;;;5035777;28;20530;-77
2024/01/11 07:31:26;;;;;;;1999.90;999.90;;;-5.20;97.00;;;;;;5054919;28;20092;-78
2024/01/11 07:33:52;;;;;;;1999.90;999.90;;;-5.20;97.20;;;;;;5052414;28;20041;-77
2024/01/11 07:36:18;;;;;;;1999.90;999.90;;;-5.20;97.20;;;;;;5036191;28;20060;-78
2024/01/11 07:38:44;;;;;;;1999.90;999.90;;;-5.20;97.10;;;;;;5057054;28;20029;-77
2024/01/11 07:41:10;;;;;;;1999.90;999.90;;;-5.00;97.30;;;;;;5051840;28;20487;-77
2024/01/11 07:43:35;;;;;;;1999.90;999.90;;;-4.90;97.30;;;;;;5036672;28;20072;-76
2024/01/11 07:46:03;;;;;;;1999.90;999.90;;;-4.60;97.10;;;;;;5034793;28;20476;-76
2024/01/11 07:48:30;;;;;;;1999.90;999.90;;;-4.60;96.80;;;;;;5057802;28;20450;-78
2024/01/11 07:50:56;;;;;;;1999.90;999.90;;;-4.70;97.10;;;;;;5035158;28;20495;-77
2024/01/11 07:53:23;;;;;;;1999.90;999.90;;;-4.70;96.90;;;;;;5056516;28;20047;-77
2024/01/11 07:55:49;;;;;;;1999.90;999.90;;;-4.60;97.40;;;;;;5048445;28;20153;-76
2024/01/11 07:58:15;;;;;;;1999.90;999.90;;;-4.80;96.70;;;;;;5017246;28;20148;-76
2024/01/11 08:00:41;;;;;;;1999.90;999.90;;;-4.80;97.00;;;;;;5051473;28;20106;-78
2024/01/11 08:03:07;;;;;;;1999.90;999.90;;;-4.90;96.80;;;;;;5051441;28;20052;-77
2024/01/11 08:05:34;;;;;;;1999.90;999.90;;;-4.80;96.70;;;;;;5048098;28;20047;-78
2024/01/11 08:08:02;;;;;;;1999.90;999.90;;;-4.80;97.10;;;;;;5053985;28;20029;-77
2024/01/11 08:10:30;;;;;;;1999.90;999.90;;;-4.70;97.10;;;;;;5056206;28;20051;-78
2024/01/11 08:12:56;;;;;;;1999.90;999.90;;;-4.50;97.30;;;;;;5050114;28;20079;-78
2024/01/11 08:15:22;;;;;;;1999.90;999.90;;;-4.30;97.30;;;;;;5054537;28;20060;-78
2024/01/11 08:17:48;;;;;;;1999.90;999.90;;;-4.20;97.10;;;;;;5049343;28;20056;-77
2024/01/11 08:20:15;;;;;;;1999.90;999.90;;;-4.20;96.80;;;;;;5051583;28;20063;-79
2024/01/11 08:22:42;;;;;;;1999.90;999.90;;;-4.30;96.70;;;;;;5032005;28;20486;-79
2024/01/11 08:25:09;;;;;;;1999.90;999.90;;;-4.20;97.00;;;;;;5049331;28;20026;-77
2024/01/11 08:27:35;;;;;;;1999.90;999.90;;;-4.30;96.70;;;;;;5052362;28;20037;-77
2024/01/11 08:30:02;;;;;;;1999.90;999.90;;;-4.30;96.70;;;;;;5036949;28;20028;-78
2024/01/11 08:32:28;;;;;;;1999.90;999.90;;;-4.30;96.40;;;;;;5053885;28;20397;-79
2024/01/11 08:34:54;;;;;;;1999.90;999.90;;;-4.30;96.40;;;;;;5033324;28;20032;-78
2024/01/11 08:37:20;;;;;;;1999.90;999.90;;;-4.30;96.40;;;;;;5021960;28;20491;-76
2024/01/11 08:39:46;;;;;;;1999.90;999.90;;;-4.20;96.50;;;;;;5052613;28;20043;-76
2024/01/11 08:42:12;;;;;;;1999.90;999.90;;;-4.10;96.10;;;;;;5027510;28;20029;-78
2024/01/11 08:44:42;;;;;;;1999.90;999.90;;;-4.20;96.00;;;;;;5053509;28;20079;-78
2024/01/11 08:47:09;;;;;;;1999.90;999.90;;;-4.30;95.80;;;;;;5049829;28;20079;-76
2024/01/11 08:49:38;;;;;;;1999.90;999.90;;;-4.20;96.10;;;;;;5045927;28;20036;-77
2024/01/11 08:52:05;;;;;;;1999.90;999.90;;;-4.20;96.00;;;;;;5049745;28;20021;-77
2024/01/11 08:54:32;;;;;;;1999.90;999.90;;;-4.10;95.80;;;;;;5041463;28;20096;-78
2024/01/11 08:56:58;;;;;;;1999.90;999.90;;;-4.20;96.30;;;;;;5046367;28;20025;-77
2024/01/11 08:59:25;;;;;;;1999.90;999.90;;;-4.10;96.00;;;;;;5051932;28;20572;-77
2024/01/11 09:01:52;;;;;;;1999.90;999.90;;;-4.10;96.30;;;;;;5046651;28;20032;-78
2024/01/11 09:04:18;;;;;;;1999.90;999.90;;;-4.00;96.30;;;;;;5049947;28;20040;-80
2024/01/11 09:06:44;;;;;;;1999.90;999.90;;;-4.00;95.90;;;;;;5048938;28;20036;-78
2024/01/11 09:09:13;;;;;;;1999.90;999.90;;;-3.90;96.00;;;;;;5045679;28;20025;-77
2024/01/11 09:11:40;;;;;;;1999.90;999.90;;;-3.80;95.80;;;;;;5048834;28;20029;-76
2024/01/11 09:14:07;;;;;;;1999.90;999.90;;;-3.80;95.70;;;;;;5030035;28;20024;-77
2024/01/11 09:16:33;;;;;;;1999.90;999.90;;;-3.90;95.40;;;;;;5040158;28;20099;-78
2024/01/11 09:19:01;;;;;;;1999.90;999.90;;;-3.90;95.40;;;;;;5049414;28;20793;-77
2024/01/11 09:21:27;;;;;;;1999.90;999.90;;;-4.00;95.30;;;;;;5044713;28;20045;-78
2024/01/11 09:23:53;;;;;;;1999.90;999.90;;;-4.00;95.60;;;;;;5030103;28;20092;-78
2024/01/11 09:26:18;;;;;;;1999.90;999.90;;;-4.00;95.80;;;;;;5028281;28;20139;-78
2024/01/11 09:28:45;;;;;;;1999.90;999.90;;;-4.00;95.80;;;;;;5046811;28;20056;-78
2024/01/11 09:31:11;;;;;;;1999.90;999.90;;;-4.00;95.70;;;;;;5009174;28;20025;-76
2024/01/11 09:33:38;;;;;;;1999.90;999.90;;;-4.00;96.10;;;;;;5042576;28;20128;-76
2024/01/11 09:36:04;;;;;;;1999.90;999.90;;;-4.00;95.00;;;;;;5044289;28;20029;-77
2024/01/11 09:38:30;;;;;;;1999.90;999.90;;;-3.90;95.50;;;;;;5029209;28;20029;-78
2024/01/11 09:41:11;;;;;;;1999.90;999.90;;;-4.10;95.80;;;;;;5045846;28;20029;-78
2024/01/11 09:43:38;;;;;;;1999.90;999.90;;;-4.00;95.90;;;;;;5038601;28;20028;-76
2024/01/11 09:46:05;;;;;;;1999.90;999.90;;;-4.10;95.70;;;;;;5042913;28;20223;-77
2024/01/11 09:48:43;;;;;;;1999.90;999.90;;;-4.00;95.40;;;;;;5045521;28;20123;-78
2024/01/11 09:51:12;;;;;;;1999.90;999.90;;;-4.10;96.10;;;;;;5044605;28;20033;-78
2024/01/11 09:53:39;;;;;;;1999.90;999.90;;;-3.90;95.50;;;;;;5045846;28;20156;-79
2024/01/11 09:56:09;;;;;;;1999.90;999.90;;;-3.90;95.80;;;;;;5048786;28;20032;-77
2024/01/11 09:58:38;;;;;;;1999.90;999.90;;;-3.80;95.40;;;;;;5041673;28;20043;-78
2024/01/11 10:01:08;;;;;;;1999.90;999.90;;;-4.00;95.70;;;;;;5044720;28;20036;-77
2024/01/11 10:03:34;;;;;;;1999.90;999.90;;;-3.90;95.70;;;;;;5048399;28;20021;-77
2024/01/11 10:06:01;;;;;;;1999.90;999.90;;;-3.80;95.60;;;;;;5045956;28;20037;-76
2024/01/11 10:08:29;;;;;;;1999.90;999.90;;;-3.80;95.70;;;;;;5047092;28;20053;-78
2024/01/11 10:10:55;;;;;;;1999.90;999.90;;;-3.70;95.90;;;;;;5049182;28;20087;-78
2024/01/11 10:13:29;;;;;;;1999.90;999.90;;;-3.40;95.30;;;;;;5028886;28;20036;-78
2024/01/11 10:16:21;;;;;;;1999.90;999.90;;;-3.50;95.60;;;;;;5042734;28;20028;-78
2024/01/11 10:18:47;;;;;;;1999.90;999.90;;;-3.40;95.70;;;;;;5040003;28;20557;-78
2024/01/11 10:21:13;;;;;;;1999.90;999.90;;;-3.40;96.10;;;;;;5048567;28;20058;-77
2024/01/11 10:23:39;;;;;;;1999.90;999.90;;;-3.20;95.80;;;;;;5050394;28;20017;-78
2024/01/11 10:26:07;;;;;;;1999.90;999.90;;;-3.20;94.80;;;;;;5056228;28;20509;-78
2024/01/11 10:28:37;;;;;;;1999.90;999.90;;;-3.20;94.90;;;;;;5055187;28;20029;-78
2024/01/11 10:31:06;;;;;;;1999.90;999.90;;;-3.20;95.30;;;;;;5050469;28;20028;-78
2024/01/11 10:33:33;;;;;;;1999.90;999.90;;;-3.20;94.40;;;;;;5035049;28;20411;-78
2024/01/11 10:36:00;;;;;;;1999.90;999.90;;;-3.00;94.10;;;;;;5040167;28;20090;-79
2024/01/11 10:38:26;;;;;;;1999.90;999.90;;;-3.20;94.70;;;;;;5034479;28;20053;-78
2024/01/11 10:40:55;;;;;;;1999.90;999.90;;;-3.20;94.70;;;;;;5055118;28;20099;-78
2024/01/11 10:43:22;;;;;;;1999.90;999.90;;;-3.10;95.50;;;;;;5053972;28;20372;-78
2024/01/11 10:45:56;;;;;;;1999.90;999.90;;;-2.80;94.70;;;;;;5048720;28;20111;-77
2024/01/11 10:48:25;;;;;;;1999.90;999.90;;;-2.70;95.00;;;;;;5052336;28;20499;-78
2024/01/11 10:50:57;;;;;;;1999.90;999.90;;;-2.70;95.10;;;;;;5030838;28;20388;-78
2024/01/11 10:53:47;;;;;;;1999.90;999.90;;;-2.70;93.20;;;;;;5057369;28;20031;-79
2024/01/11 10:56:15;;;;;;;1999.90;999.90;;;-3.00;95.20;;;;;;5055669;28;20087;-78
2024/01/11 10:58:42;;;;;;;1999.90;999.90;;;-2.90;95.40;;;;;;5052964;28;20021;-78
2024/01/11 11:01:10;;;;;;;1999.90;999.90;;;-2.80;94.30;;;;;;5034025;28;20111;-78
2024/01/11 11:03:37;;;;;;;1999.90;999.90;;;-2.80;94.90;;;;;;5049401;28;20542;-78
2024/01/11 11:06:05;;;;;;;1999.90;999.90;;;-2.80;93.20;;;;;;5053134;28;20064;-78
2024/01/11 11:08:31;;;;;;;1999.90;999.90;;;-3.00;94.80;;;;;;5069281;28;20033;-77
2024/01/11 11:10:58;;;;;;;1999.90;999.90;;;-2.70;93.20;;;;;;5053213;28;20734;-78
2024/01/11 11:13:24;;;;;;;1999.90;999.90;;;-2.70;95.20;;;;;;5053878;28;20044;-77
2024/01/11 11:15:51;;;;;;;1999.90;999.90;;;-2.70;94.80;;;;;;5048637;28;20470;-78
2024/01/11 11:18:18;;;;;;;1999.90;999.90;;;-2.60;94.40;;;;;;5047605;28;20048;-78
2024/01/11 11:20:45;;;;;;;1999.90;999.90;;;-2.70;94.60;;;;;;5014544;28;20101;-78
2024/01/11 11:23:17;;;;;;;1999.90;999.90;;;-2.60;94.40;;;;;;5060152;28;20029;-77
2024/01/11 11:25:44;;;;;;;1999.90;999.90;;;-2.70;94.60;;;;;;5046397;28;20029;-78
2024/01/11 11:28:14;;;;;;;1999.90;999.90;;;-2.80;95.10;;;;;;5047585;28;20018;-78
2024/01/11 11:30:42;;;;;;;1999.90;999.90;;;-2.60;95.20;;;;;;5047318;28;20040;-77
2024/01/11 11:33:23;;;;;;;1999.90;999.90;;;-2.50;95.00;;;;;;5048213;28;20139;-77
2024/01/11 11:35:54;;;;;;;1999.90;999.90;;;-2.60;94.70;;;;;;5049302;28;20061;-77
2024/01/11 11:38:30;;;;;;;1999.90;999.90;;;-2.50;94.90;;;;;;5048474;28;20442;-77
2024/01/11 11:40:58;;;;;;;1999.90;999.90;;;-2.80;94.50;;;;;;5049518;28;20037;-76
2024/01/11 11:43:26;;;;;;;1999.90;999.90;;;-2.70;94.40;;;;;;5048427;28;20016;-79
2024/01/11 11:45:53;;;;;;;1999.90;999.90;;;-2.50;95.30;;;;;;5047683;28;20037;-78
2024/01/11 11:48:36;;;;;;;1999.90;999.90;;;-2.50;95.10;;;;;;5048495;28;20507;-79
2024/01/11 11:51:10;;;;;;;1999.90;999.90;;;-2.50;95.10;;;;;;5050055;28;20440;-78
2024/01/11 11:53:40;;;;;;;1999.90;999.90;;;-2.70;94.20;;;;;;5052289;28;20352;-77
2024/01/11 11:56:09;;;;;;;1999.90;999.90;;;-2.60;93.30;;;;;;5049693;28;20029;-78